Fieldon, Illinois
Current Conditions -  °F | °C
As of 2:54 AM on Monday 22 Dec 2014 (Local Time) from KSET Reporting Station
Overcast Overcast  
Wind Chill: 33°   Ceiling: 4800
Heat Index: 40°   Visibility: 10mi
Dew Point: 33°   Wind: 12mph
Humidity: 77%   Direction: 100°E
Pressure: 29.87"   Gusts: NA
Location:  39.11°N, 90.5°W
Report Text: KSET 220854Z AUTO 10010KT 10SM OVC048 04/01 A2987 RMK AO2 SLP115 T00440006 58020
Loading
Personal Weather Stations






























Interactive Weather Map New forecast layout! Learn more

10-Day Weather Forecast

Advertisements
Track Severe Weather on mobile